sensor_id;sensor_type;location;lat;lon;timestamp;P1;durP1;ratioP1;P2;durP2;ratioP2
54307;SDS011;40208;39.778;2.710;2023-04-19T00:01:37;5.78;;;3.58;;
54307;SDS011;40208;39.778;2.710;2023-04-19T00:04:23;6.40;;;3.42;;
54307;SDS011;40208;39.778;2.710;2023-04-19T00:07:08;9.30;;;3.75;;
54307;SDS011;40208;39.778;2.710;2023-04-19T00:09:53;7.72;;;3.72;;
54307;SDS011;40208;39.778;2.710;2023-04-19T00:12:38;11.02;;;3.72;;
54307;SDS011;40208;39.778;2.710;2023-04-19T00:15:23;7.25;;;3.50;;
54307;SDS011;40208;39.778;2.710;2023-04-19T00:18:08;6.60;;;3.67;;
54307;SDS011;40208;39.778;2.710;2023-04-19T00:20:52;8.13;;;4.00;;
54307;SDS011;40208;39.778;2.710;2023-04-19T00:23:37;8.90;;;4.43;;
54307;SDS011;40208;39.778;2.710;2023-04-19T00:26:22;9.32;;;4.55;;
54307;SDS011;40208;39.778;2.710;2023-04-19T00:29:07;5.57;;;3.63;;
54307;SDS011;40208;39.778;2.710;2023-04-19T00:31:52;8.00;;;3.72;;
54307;SDS011;40208;39.778;2.710;2023-04-19T00:34:37;9.57;;;4.43;;
54307;SDS011;40208;39.778;2.710;2023-04-19T00:37:22;9.98;;;4.25;;
54307;SDS011;40208;39.778;2.710;2023-04-19T00:40:07;5.78;;;3.42;;
54307;SDS011;40208;39.778;2.710;2023-04-19T00:42:52;7.90;;;4.28;;
54307;SDS011;40208;39.778;2.710;2023-04-19T00:45:36;7.32;;;4.00;;
54307;SDS011;40208;39.778;2.710;2023-04-19T00:48:21;7.22;;;4.15;;
54307;SDS011;40208;39.778;2.710;2023-04-19T00:51:07;9.82;;;4.75;;
54307;SDS011;40208;39.778;2.710;2023-04-19T00:53:53;8.10;;;4.50;;
54307;SDS011;40208;39.778;2.710;2023-04-19T00:56:38;9.45;;;4.88;;
54307;SDS011;40208;39.778;2.710;2023-04-19T00:59:23;9.38;;;4.75;;
54307;SDS011;40208;39.778;2.710;2023-04-19T01:02:08;9.88;;;4.43;;
54307;SDS011;40208;39.778;2.710;2023-04-19T01:04:53;8.40;;;4.13;;
54307;SDS011;40208;39.778;2.710;2023-04-19T01:07:38;9.32;;;4.35;;
54307;SDS011;40208;39.778;2.710;2023-04-19T01:10:23;5.82;;;3.85;;
54307;SDS011;40208;39.778;2.710;2023-04-19T01:13:07;7.93;;;3.53;;
54307;SDS011;40208;39.778;2.710;2023-04-19T01:15:53;5.47;;;3.58;;
54307;SDS011;40208;39.778;2.710;2023-04-19T01:18:38;6.75;;;3.05;;
54307;SDS011;40208;39.778;2.710;2023-04-19T01:21:23;5.07;;;3.53;;
54307;SDS011;40208;39.778;2.710;2023-04-19T01:24:08;5.43;;;3.13;;
54307;SDS011;40208;39.778;2.710;2023-04-19T01:26:53;5.28;;;3.22;;
54307;SDS011;40208;39.778;2.710;2023-04-19T01:29:38;5.30;;;3.15;;
54307;SDS011;40208;39.778;2.710;2023-04-19T01:32:23;8.27;;;3.20;;
54307;SDS011;40208;39.778;2.710;2023-04-19T01:35:09;7.13;;;3.92;;
54307;SDS011;40208;39.778;2.710;2023-04-19T01:37:57;5.88;;;3.20;;
54307;SDS011;40208;39.778;2.710;2023-04-19T01:40:42;10.00;;;3.22;;
54307;SDS011;40208;39.778;2.710;2023-04-19T01:43:27;6.65;;;3.35;;
54307;SDS011;40208;39.778;2.710;2023-04-19T01:46:11;6.78;;;3.88;;
54307;SDS011;40208;39.778;2.710;2023-04-19T01:48:56;7.78;;;3.55;;
54307;SDS011;40208;39.778;2.710;2023-04-19T01:51:40;6.50;;;2.97;;
54307;SDS011;40208;39.778;2.710;2023-04-19T01:54:25;6.97;;;3.00;;
54307;SDS011;40208;39.778;2.710;2023-04-19T01:57:10;4.10;;;2.53;;
54307;SDS011;40208;39.778;2.710;2023-04-19T01:59:56;3.72;;;2.15;;
54307;SDS011;40208;39.778;2.710;2023-04-19T02:02:40;8.05;;;2.80;;
54307;SDS011;40208;39.778;2.710;2023-04-19T02:05:25;8.05;;;2.95;;
54307;SDS011;40208;39.778;2.710;2023-04-19T02:08:10;5.35;;;2.67;;
54307;SDS011;40208;39.778;2.710;2023-04-19T02:10:55;6.15;;;3.35;;
54307;SDS011;40208;39.778;2.710;2023-04-19T02:13:40;6.40;;;3.10;;
54307;SDS011;40208;39.778;2.710;2023-04-19T02:16:25;6.53;;;2.85;;
54307;SDS011;40208;39.778;2.710;2023-04-19T02:19:10;5.35;;;2.78;;
54307;SDS011;40208;39.778;2.710;2023-04-19T02:21:55;6.00;;;2.85;;
54307;SDS011;40208;39.778;2.710;2023-04-19T02:24:43;4.35;;;2.53;;
54307;SDS011;40208;39.778;2.710;2023-04-19T02:27:28;4.85;;;2.75;;
54307;SDS011;40208;39.778;2.710;2023-04-19T02:30:13;7.07;;;2.90;;
54307;SDS011;40208;39.778;2.710;2023-04-19T02:32:58;7.13;;;3.28;;
54307;SDS011;40208;39.778;2.710;2023-04-19T02:35:42;10.40;;;4.53;;
54307;SDS011;40208;39.778;2.710;2023-04-19T02:38:27;4.22;;;2.85;;
54307;SDS011;40208;39.778;2.710;2023-04-19T02:41:12;5.88;;;3.08;;
54307;SDS011;40208;39.778;2.710;2023-04-19T02:43:56;6.35;;;3.28;;
54307;SDS011;40208;39.778;2.710;2023-04-19T02:46:47;5.32;;;3.10;;
54307;SDS011;40208;39.778;2.710;2023-04-19T02:49:35;4.53;;;2.78;;
54307;SDS011;40208;39.778;2.710;2023-04-19T02:52:21;5.43;;;3.13;;
54307;SDS011;40208;39.778;2.710;2023-04-19T02:55:06;3.88;;;2.80;;
54307;SDS011;40208;39.778;2.710;2023-04-19T02:57:52;5.00;;;2.83;;
54307;SDS011;40208;39.778;2.710;2023-04-19T03:00:36;4.07;;;2.40;;
54307;SDS011;40208;39.778;2.710;2023-04-19T03:03:21;4.85;;;2.53;;
54307;SDS011;40208;39.778;2.710;2023-04-19T03:06:06;8.32;;;2.58;;
54307;SDS011;40208;39.778;2.710;2023-04-19T03:08:51;6.53;;;2.20;;
54307;SDS011;40208;39.778;2.710;2023-04-19T03:11:36;11.35;;;3.35;;
54307;SDS011;40208;39.778;2.710;2023-04-19T03:14:22;5.97;;;2.60;;
54307;SDS011;40208;39.778;2.710;2023-04-19T03:17:06;6.75;;;2.30;;
54307;SDS011;40208;39.778;2.710;2023-04-19T03:19:51;3.40;;;2.20;;
54307;SDS011;40208;39.778;2.710;2023-04-19T03:22:35;7.45;;;3.42;;
54307;SDS011;40208;39.778;2.710;2023-04-19T03:25:21;6.63;;;2.90;;
54307;SDS011;40208;39.778;2.710;2023-04-19T03:28:06;5.90;;;2.55;;
54307;SDS011;40208;39.778;2.710;2023-04-19T03:30:51;5.30;;;2.95;;
54307;SDS011;40208;39.778;2.710;2023-04-19T03:33:35;3.92;;;2.63;;
54307;SDS011;40208;39.778;2.710;2023-04-19T03:36:20;7.45;;;2.80;;
54307;SDS011;40208;39.778;2.710;2023-04-19T03:39:05;3.53;;;2.05;;
54307;SDS011;40208;39.778;2.710;2023-04-19T03:41:50;6.97;;;3.45;;
54307;SDS011;40208;39.778;2.710;2023-04-19T03:44:35;4.60;;;2.15;;
54307;SDS011;40208;39.778;2.710;2023-04-19T03:47:20;5.75;;;2.47;;
54307;SDS011;40208;39.778;2.710;2023-04-19T03:50:05;2.67;;;1.98;;
54307;SDS011;40208;39.778;2.710;2023-04-19T03:52:51;3.42;;;1.90;;
54307;SDS011;40208;39.778;2.710;2023-04-19T03:55:35;4.13;;;1.77;;
54307;SDS011;40208;39.778;2.710;2023-04-19T03:58:21;3.10;;;2.15;;
54307;SDS011;40208;39.778;2.710;2023-04-19T04:01:06;5.55;;;2.40;;
54307;SDS011;40208;39.778;2.710;2023-04-19T04:03:51;3.75;;;2.40;;
54307;SDS011;40208;39.778;2.710;2023-04-19T04:06:36;5.45;;;2.30;;
54307;SDS011;40208;39.778;2.710;2023-04-19T04:09:21;11.13;;;3.10;;
54307;SDS011;40208;39.778;2.710;2023-04-19T04:12:06;7.82;;;2.42;;
54307;SDS011;40208;39.778;2.710;2023-04-19T04:14:51;6.05;;;3.03;;
54307;SDS011;40208;39.778;2.710;2023-04-19T04:17:35;6.10;;;2.70;;
54307;SDS011;40208;39.778;2.710;2023-04-19T04:20:20;7.72;;;3.22;;
54307;SDS011;40208;39.778;2.710;2023-04-19T04:23:05;6.47;;;2.88;;
54307;SDS011;40208;39.778;2.710;2023-04-19T04:25:59;12.40;;;3.33;;
54307;SDS011;40208;39.778;2.710;2023-04-19T04:28:45;6.43;;;2.72;;
54307;SDS011;40208;39.778;2.710;2023-04-19T04:31:29;3.45;;;2.30;;
54307;SDS011;40208;39.778;2.710;2023-04-19T04:34:15;6.80;;;3.00;;
54307;SDS011;40208;39.778;2.710;2023-04-19T04:37:00;4.15;;;2.38;;
54307;SDS011;40208;39.778;2.710;2023-04-19T04:39:45;6.05;;;2.70;;
54307;SDS011;40208;39.778;2.710;2023-04-19T04:42:30;5.47;;;2.58;;
54307;SDS011;40208;39.778;2.710;2023-04-19T04:45:15;9.55;;;2.40;;
54307;SDS011;40208;39.778;2.710;2023-04-19T04:48:01;9.38;;;2.38;;
54307;SDS011;40208;39.778;2.710;2023-04-19T04:50:46;3.85;;;1.98;;
54307;SDS011;40208;39.778;2.710;2023-04-19T04:53:31;3.80;;;2.17;;
54307;SDS011;40208;39.778;2.710;2023-04-19T04:56:16;9.65;;;2.67;;
54307;SDS011;40208;39.778;2.710;2023-04-19T04:59:00;15.48;;;2.58;;
54307;SDS011;40208;39.778;2.710;2023-04-19T05:01:45;7.30;;;2.20;;
54307;SDS011;40208;39.778;2.710;2023-04-19T05:04:30;7.60;;;2.53;;
54307;SDS011;40208;39.778;2.710;2023-04-19T05:07:15;9.63;;;2.58;;
54307;SDS011;40208;39.778;2.710;2023-04-19T05:10:00;9.20;;;2.40;;
54307;SDS011;40208;39.778;2.710;2023-04-19T05:12:45;4.30;;;2.33;;
54307;SDS011;40208;39.778;2.710;2023-04-19T05:15:30;11.02;;;2.50;;
54307;SDS011;40208;39.778;2.710;2023-04-19T05:18:14;7.00;;;2.15;;
54307;SDS011;40208;39.778;2.710;2023-04-19T05:20:59;7.35;;;2.22;;
54307;SDS011;40208;39.778;2.710;2023-04-19T05:23:44;7.40;;;2.50;;
54307;SDS011;40208;39.778;2.710;2023-04-19T05:26:29;8.98;;;2.40;;
54307;SDS011;40208;39.778;2.710;2023-04-19T05:29:15;9.18;;;2.90;;
54307;SDS011;40208;39.778;2.710;2023-04-19T05:32:00;9.68;;;2.80;;
54307;SDS011;40208;39.778;2.710;2023-04-19T05:34:45;7.30;;;3.00;;
54307;SDS011;40208;39.778;2.710;2023-04-19T05:37:30;18.13;;;3.78;;
54307;SDS011;40208;39.778;2.710;2023-04-19T05:40:15;24.10;;;4.15;;
54307;SDS011;40208;39.778;2.710;2023-04-19T05:43:00;13.73;;;3.50;;
54307;SDS011;40208;39.778;2.710;2023-04-19T05:45:45;12.05;;;3.38;;
54307;SDS011;40208;39.778;2.710;2023-04-19T05:48:30;16.38;;;3.45;;
54307;SDS011;40208;39.778;2.710;2023-04-19T05:51:15;8.93;;;3.20;;
54307;SDS011;40208;39.778;2.710;2023-04-19T05:54:02;8.70;;;3.63;;
54307;SDS011;40208;39.778;2.710;2023-04-19T05:56:47;9.27;;;3.22;;
54307;SDS011;40208;39.778;2.710;2023-04-19T05:59:32;8.50;;;3.25;;
54307;SDS011;40208;39.778;2.710;2023-04-19T06:02:16;7.15;;;3.63;;
54307;SDS011;40208;39.778;2.710;2023-04-19T06:05:01;9.75;;;3.20;;
54307;SDS011;40208;39.778;2.710;2023-04-19T06:07:49;15.77;;;3.40;;
54307;SDS011;40208;39.778;2.710;2023-04-19T06:10:35;6.47;;;2.95;;
54307;SDS011;40208;39.778;2.710;2023-04-19T06:13:21;8.20;;;3.30;;
54307;SDS011;40208;39.778;2.710;2023-04-19T06:16:06;18.05;;;3.60;;
54307;SDS011;40208;39.778;2.710;2023-04-19T06:18:52;10.85;;;3.22;;
54307;SDS011;40208;39.778;2.710;2023-04-19T06:21:37;14.73;;;3.13;;
54307;SDS011;40208;39.778;2.710;2023-04-19T06:24:22;8.45;;;3.10;;
54307;SDS011;40208;39.778;2.710;2023-04-19T06:27:07;10.20;;;3.22;;
54307;SDS011;40208;39.778;2.710;2023-04-19T06:29:52;6.47;;;4.20;;
54307;SDS011;40208;39.778;2.710;2023-04-19T06:32:37;11.98;;;3.22;;
54307;SDS011;40208;39.778;2.710;2023-04-19T06:35:22;7.07;;;3.67;;
54307;SDS011;40208;39.778;2.710;2023-04-19T06:38:08;7.65;;;3.83;;
54307;SDS011;40208;39.778;2.710;2023-04-19T06:40:53;8.00;;;3.80;;
54307;SDS011;40208;39.778;2.710;2023-04-19T06:43:37;11.63;;;4.55;;
54307;SDS011;40208;39.778;2.710;2023-04-19T06:46:23;13.77;;;5.30;;
54307;SDS011;40208;39.778;2.710;2023-04-19T06:49:08;13.18;;;5.00;;
54307;SDS011;40208;39.778;2.710;2023-04-19T06:51:53;7.70;;;4.60;;
54307;SDS011;40208;39.778;2.710;2023-04-19T06:54:38;8.32;;;3.60;;
54307;SDS011;40208;39.778;2.710;2023-04-19T06:57:23;17.40;;;5.10;;
54307;SDS011;40208;39.778;2.710;2023-04-19T07:00:08;18.88;;;6.40;;
54307;SDS011;40208;39.778;2.710;2023-04-19T07:02:54;34.33;;;9.02;;
54307;SDS011;40208;39.778;2.710;2023-04-19T07:05:39;90.18;;;27.80;;
54307;SDS011;40208;39.778;2.710;2023-04-19T07:08:25;69.60;;;25.52;;
54307;SDS011;40208;39.778;2.710;2023-04-19T07:11:10;259.10;;;85.05;;
54307;SDS011;40208;39.778;2.710;2023-04-19T07:13:55;267.48;;;94.43;;
54307;SDS011;40208;39.778;2.710;2023-04-19T07:16:40;271.73;;;109.75;;
54307;SDS011;40208;39.778;2.710;2023-04-19T07:19:24;275.02;;;116.07;;
54307;SDS011;40208;39.778;2.710;2023-04-19T07:22:09;180.23;;;81.55;;
54307;SDS011;40208;39.778;2.710;2023-04-19T07:24:54;103.75;;;40.10;;
54307;SDS011;40208;39.778;2.710;2023-04-19T07:27:39;55.25;;;23.55;;
54307;SDS011;40208;39.778;2.710;2023-04-19T07:30:24;55.28;;;28.25;;
54307;SDS011;40208;39.778;2.710;2023-04-19T07:33:09;64.93;;;26.42;;
54307;SDS011;40208;39.778;2.710;2023-04-19T07:35:54;49.47;;;24.20;;
54307;SDS011;40208;39.778;2.710;2023-04-19T07:38:39;38.13;;;19.23;;
54307;SDS011;40208;39.778;2.710;2023-04-19T07:41:24;42.42;;;20.23;;
54307;SDS011;40208;39.778;2.710;2023-04-19T07:44:09;44.78;;;21.63;;
54307;SDS011;40208;39.778;2.710;2023-04-19T07:46:55;49.08;;;21.67;;
54307;SDS011;40208;39.778;2.710;2023-04-19T07:49:39;44.97;;;20.55;;
54307;SDS011;40208;39.778;2.710;2023-04-19T07:52:24;42.55;;;19.45;;
54307;SDS011;40208;39.778;2.710;2023-04-19T07:55:09;42.58;;;18.40;;
54307;SDS011;40208;39.778;2.710;2023-04-19T07:57:54;38.75;;;20.60;;
54307;SDS011;40208;39.778;2.710;2023-04-19T08:00:39;49.03;;;22.85;;
54307;SDS011;40208;39.778;2.710;2023-04-19T08:03:24;39.35;;;22.58;;
54307;SDS011;40208;39.778;2.710;2023-04-19T08:06:09;46.25;;;22.83;;
54307;SDS011;40208;39.778;2.710;2023-04-19T08:08:56;46.70;;;23.65;;
54307;SDS011;40208;39.778;2.710;2023-04-19T08:11:41;33.67;;;18.80;;
54307;SDS011;40208;39.778;2.710;2023-04-19T08:14:26;33.17;;;17.15;;
54307;SDS011;40208;39.778;2.710;2023-04-19T08:17:11;31.95;;;14.27;;
54307;SDS011;40208;39.778;2.710;2023-04-19T08:19:55;15.07;;;9.15;;
54307;SDS011;40208;39.778;2.710;2023-04-19T08:22:40;15.57;;;8.05;;
54307;SDS011;40208;39.778;2.710;2023-04-19T08:25:25;22.48;;;9.93;;
54307;SDS011;40208;39.778;2.710;2023-04-19T08:28:11;30.58;;;13.02;;
54307;SDS011;40208;39.778;2.710;2023-04-19T08:30:57;45.03;;;14.32;;
54307;SDS011;40208;39.778;2.710;2023-04-19T08:33:42;27.38;;;12.35;;
54307;SDS011;40208;39.778;2.710;2023-04-19T08:36:27;26.85;;;12.57;;
54307;SDS011;40208;39.778;2.710;2023-04-19T08:39:12;22.65;;;12.85;;
54307;SDS011;40208;39.778;2.710;2023-04-19T08:42:05;21.65;;;11.63;;
54307;SDS011;40208;39.778;2.710;2023-04-19T08:44:50;18.95;;;10.05;;
54307;SDS011;40208;39.778;2.710;2023-04-19T08:47:37;20.10;;;7.60;;
54307;SDS011;40208;39.778;2.710;2023-04-19T08:50:22;15.20;;;7.25;;
54307;SDS011;40208;39.778;2.710;2023-04-19T08:53:08;10.48;;;4.93;;
54307;SDS011;40208;39.778;2.710;2023-04-19T08:55:54;7.60;;;3.40;;
54307;SDS011;40208;39.778;2.710;2023-04-19T08:58:42;23.23;;;8.40;;
54307;SDS011;40208;39.778;2.710;2023-04-19T09:01:26;24.02;;;9.52;;
54307;SDS011;40208;39.778;2.710;2023-04-19T09:04:12;25.30;;;9.02;;
54307;SDS011;40208;39.778;2.710;2023-04-19T09:06:57;22.83;;;9.63;;
54307;SDS011;40208;39.778;2.710;2023-04-19T09:09:42;15.50;;;5.97;;
54307;SDS011;40208;39.778;2.710;2023-04-19T09:12:26;34.28;;;11.85;;
54307;SDS011;40208;39.778;2.710;2023-04-19T09:15:11;28.40;;;11.85;;
54307;SDS011;40208;39.778;2.710;2023-04-19T09:18:03;25.98;;;9.90;;
54307;SDS011;40208;39.778;2.710;2023-04-19T09:20:50;36.33;;;11.00;;
54307;SDS011;40208;39.778;2.710;2023-04-19T09:26:31;11.27;;;3.92;;
54307;SDS011;40208;39.778;2.710;2023-04-19T09:29:16;26.98;;;7.85;;
54307;SDS011;40208;39.778;2.710;2023-04-19T09:32:01;42.33;;;11.88;;
54307;SDS011;40208;39.778;2.710;2023-04-19T09:34:50;18.25;;;6.68;;
54307;SDS011;40208;39.778;2.710;2023-04-19T09:37:39;11.88;;;4.35;;
54307;SDS011;40208;39.778;2.710;2023-04-19T09:40:24;2.97;;;1.70;;
54307;SDS011;40208;39.778;2.710;2023-04-19T09:43:11;7.97;;;4.20;;
54307;SDS011;40208;39.778;2.710;2023-04-19T09:45:55;10.68;;;3.97;;
54307;SDS011;40208;39.778;2.710;2023-04-19T09:48:40;12.88;;;4.80;;
54307;SDS011;40208;39.778;2.710;2023-04-19T09:51:31;9.27;;;3.97;;
54307;SDS011;40208;39.778;2.710;2023-04-19T09:54:24;7.93;;;3.70;;
54307;SDS011;40208;39.778;2.710;2023-04-19T09:57:13;8.13;;;2.88;;
54307;SDS011;40208;39.778;2.710;2023-04-19T09:59:58;5.03;;;2.00;;
54307;SDS011;40208;39.778;2.710;2023-04-19T10:02:44;12.20;;;2.63;;
54307;SDS011;40208;39.778;2.710;2023-04-19T10:05:38;6.82;;;2.80;;
54307;SDS011;40208;39.778;2.710;2023-04-19T10:08:27;5.00;;;2.03;;
54307;SDS011;40208;39.778;2.710;2023-04-19T10:11:12;4.35;;;2.13;;
54307;SDS011;40208;39.778;2.710;2023-04-19T10:13:59;9.07;;;2.30;;
54307;SDS011;40208;39.778;2.710;2023-04-19T10:16:44;8.35;;;3.13;;
54307;SDS011;40208;39.778;2.710;2023-04-19T10:19:30;10.32;;;4.70;;
54307;SDS011;40208;39.778;2.710;2023-04-19T10:22:19;15.50;;;5.07;;
54307;SDS011;40208;39.778;2.710;2023-04-19T10:25:11;8.88;;;3.53;;
54307;SDS011;40208;39.778;2.710;2023-04-19T10:27:57;9.40;;;2.28;;
54307;SDS011;40208;39.778;2.710;2023-04-19T10:31:00;7.75;;;2.60;;
54307;SDS011;40208;39.778;2.710;2023-04-19T10:33:46;13.25;;;2.22;;
54307;SDS011;40208;39.778;2.710;2023-04-19T10:36:31;31.15;;;3.97;;
54307;SDS011;40208;39.778;2.710;2023-04-19T10:46:14;10.38;;;2.22;;
54307;SDS011;40208;39.778;2.710;2023-04-19T10:49:01;6.40;;;1.73;;
54307;SDS011;40208;39.778;2.710;2023-04-19T10:51:48;7.57;;;1.77;;
54307;SDS011;40208;39.778;2.710;2023-04-19T10:54:38;11.05;;;2.08;;
54307;SDS011;40208;39.778;2.710;2023-04-19T10:57:23;3.65;;;1.30;;
54307;SDS011;40208;39.778;2.710;2023-04-19T11:00:18;4.28;;;1.70;;
54307;SDS011;40208;39.778;2.710;2023-04-19T11:06:26;4.72;;;1.70;;
54307;SDS011;40208;39.778;2.710;2023-04-19T11:09:20;6.50;;;1.83;;
54307;SDS011;40208;39.778;2.710;2023-04-19T11:12:12;8.00;;;2.33;;
54307;SDS011;40208;39.778;2.710;2023-04-19T11:14:59;4.70;;;1.42;;
54307;SDS011;40208;39.778;2.710;2023-04-19T11:17:44;3.83;;;1.83;;
54307;SDS011;40208;39.778;2.710;2023-04-19T11:20:36;4.43;;;1.50;;
54307;SDS011;40208;39.778;2.710;2023-04-19T11:23:21;3.92;;;1.73;;
54307;SDS011;40208;39.778;2.710;2023-04-19T11:26:08;4.57;;;1.85;;
54307;SDS011;40208;39.778;2.710;2023-04-19T11:28:55;2.83;;;1.45;;
54307;SDS011;40208;39.778;2.710;2023-04-19T11:31:44;5.30;;;1.50;;
54307;SDS011;40208;39.778;2.710;2023-04-19T11:34:34;6.10;;;1.73;;
54307;SDS011;40208;39.778;2.710;2023-04-19T11:37:22;5.10;;;1.42;;
54307;SDS011;40208;39.778;2.710;2023-04-19T11:40:07;27.58;;;2.28;;
54307;SDS011;40208;39.778;2.710;2023-04-19T11:42:56;3.22;;;1.75;;
54307;SDS011;40208;39.778;2.710;2023-04-19T11:45:45;3.72;;;1.60;;
54307;SDS011;40208;39.778;2.710;2023-04-19T11:48:30;5.43;;;1.50;;
54307;SDS011;40208;39.778;2.710;2023-04-19T11:51:15;4.05;;;1.50;;
54307;SDS011;40208;39.778;2.710;2023-04-19T11:54:00;3.90;;;1.55;;
54307;SDS011;40208;39.778;2.710;2023-04-19T11:57:01;2.45;;;1.25;;
54307;SDS011;40208;39.778;2.710;2023-04-19T12:00:05;8.10;;;1.45;;
54307;SDS011;40208;39.778;2.710;2023-04-19T12:02:55;2.85;;;1.60;;
54307;SDS011;40208;39.778;2.710;2023-04-19T12:05:50;4.93;;;1.10;;
54307;SDS011;40208;39.778;2.710;2023-04-19T12:08:41;3.22;;;1.27;;
54307;SDS011;40208;39.778;2.710;2023-04-19T12:11:48;3.88;;;1.95;;
54307;SDS011;40208;39.778;2.710;2023-04-19T12:14:33;7.47;;;4.07;;
54307;SDS011;40208;39.778;2.710;2023-04-19T12:17:18;5.30;;;2.20;;
54307;SDS011;40208;39.778;2.710;2023-04-19T12:20:03;3.53;;;1.55;;
54307;SDS011;40208;39.778;2.710;2023-04-19T12:22:48;4.00;;;1.60;;
54307;SDS011;40208;39.778;2.710;2023-04-19T12:25:33;11.00;;;4.28;;
54307;SDS011;40208;39.778;2.710;2023-04-19T12:28:18;3.80;;;2.42;;
54307;SDS011;40208;39.778;2.710;2023-04-19T12:31:03;4.72;;;2.13;;
54307;SDS011;40208;39.778;2.710;2023-04-19T12:33:48;5.57;;;2.63;;
54307;SDS011;40208;39.778;2.710;2023-04-19T12:36:32;3.63;;;1.70;;
54307;SDS011;40208;39.778;2.710;2023-04-19T12:39:18;5.57;;;1.80;;
54307;SDS011;40208;39.778;2.710;2023-04-19T12:42:03;2.47;;;1.38;;
54307;SDS011;40208;39.778;2.710;2023-04-19T12:44:49;3.45;;;1.38;;
54307;SDS011;40208;39.778;2.710;2023-04-19T12:47:34;4.43;;;1.13;;
54307;SDS011;40208;39.778;2.710;2023-04-19T12:50:19;9.18;;;1.30;;
54307;SDS011;40208;39.778;2.710;2023-04-19T12:53:04;5.85;;;1.52;;
54307;SDS011;40208;39.778;2.710;2023-04-19T12:55:50;2.90;;;1.20;;
54307;SDS011;40208;39.778;2.710;2023-04-19T12:58:34;4.07;;;1.48;;
54307;SDS011;40208;39.778;2.710;2023-04-19T13:01:19;5.43;;;1.30;;
54307;SDS011;40208;39.778;2.710;2023-04-19T13:04:05;3.00;;;1.60;;
54307;SDS011;40208;39.778;2.710;2023-04-19T13:06:52;3.58;;;1.52;;
54307;SDS011;40208;39.778;2.710;2023-04-19T13:09:37;5.45;;;1.88;;
54307;SDS011;40208;39.778;2.710;2023-04-19T13:12:22;6.28;;;1.88;;
54307;SDS011;40208;39.778;2.710;2023-04-19T13:15:13;4.78;;;2.50;;
54307;SDS011;40208;39.778;2.710;2023-04-19T13:17:58;7.20;;;2.40;;
54307;SDS011;40208;39.778;2.710;2023-04-19T13:20:43;8.70;;;3.10;;
54307;SDS011;40208;39.778;2.710;2023-04-19T13:23:28;4.03;;;1.88;;
54307;SDS011;40208;39.778;2.710;2023-04-19T13:26:13;6.13;;;2.33;;
54307;SDS011;40208;39.778;2.710;2023-04-19T13:28:59;7.25;;;1.48;;
54307;SDS011;40208;39.778;2.710;2023-04-19T13:31:44;3.90;;;1.95;;
54307;SDS011;40208;39.778;2.710;2023-04-19T13:34:30;7.05;;;2.30;;
54307;SDS011;40208;39.778;2.710;2023-04-19T13:37:14;5.10;;;1.80;;
54307;SDS011;40208;39.778;2.710;2023-04-19T13:39:59;5.63;;;1.98;;
54307;SDS011;40208;39.778;2.710;2023-04-19T13:42:44;3.72;;;1.58;;
54307;SDS011;40208;39.778;2.710;2023-04-19T13:45:29;4.18;;;1.65;;
54307;SDS011;40208;39.778;2.710;2023-04-19T13:48:18;3.45;;;1.42;;
54307;SDS011;40208;39.778;2.710;2023-04-19T13:51:03;5.55;;;1.73;;
54307;SDS011;40208;39.778;2.710;2023-04-19T13:53:47;3.75;;;1.25;;
54307;SDS011;40208;39.778;2.710;2023-04-19T13:56:32;4.35;;;1.30;;
54307;SDS011;40208;39.778;2.710;2023-04-19T13:59:17;4.60;;;1.63;;
54307;SDS011;40208;39.778;2.710;2023-04-19T14:02:04;10.63;;;3.00;;
54307;SDS011;40208;39.778;2.710;2023-04-19T14:04:49;3.58;;;1.67;;
54307;SDS011;40208;39.778;2.710;2023-04-19T14:07:34;5.25;;;1.73;;
54307;SDS011;40208;39.778;2.710;2023-04-19T14:10:19;3.03;;;2.05;;
54307;SDS011;40208;39.778;2.710;2023-04-19T14:13:04;5.32;;;1.20;;
54307;SDS011;40208;39.778;2.710;2023-04-19T14:15:49;3.67;;;1.95;;
54307;SDS011;40208;39.778;2.710;2023-04-19T14:18:35;6.90;;;2.13;;
54307;SDS011;40208;39.778;2.710;2023-04-19T14:21:19;6.93;;;2.38;;
54307;SDS011;40208;39.778;2.710;2023-04-19T14:24:04;3.63;;;1.83;;
54307;SDS011;40208;39.778;2.710;2023-04-19T14:26:49;3.47;;;1.50;;
54307;SDS011;40208;39.778;2.710;2023-04-19T14:29:34;4.82;;;1.88;;
54307;SDS011;40208;39.778;2.710;2023-04-19T14:32:19;9.52;;;2.20;;
54307;SDS011;40208;39.778;2.710;2023-04-19T14:35:04;4.50;;;1.60;;
54307;SDS011;40208;39.778;2.710;2023-04-19T14:37:49;3.83;;;2.60;;
54307;SDS011;40208;39.778;2.710;2023-04-19T14:40:34;4.45;;;1.20;;
54307;SDS011;40208;39.778;2.710;2023-04-19T14:43:19;3.60;;;1.75;;
54307;SDS011;40208;39.778;2.710;2023-04-19T14:46:04;3.63;;;1.50;;
54307;SDS011;40208;39.778;2.710;2023-04-19T14:48:48;4.93;;;1.60;;
54307;SDS011;40208;39.778;2.710;2023-04-19T14:51:33;2.53;;;1.40;;
54307;SDS011;40208;39.778;2.710;2023-04-19T14:54:18;3.95;;;1.30;;
54307;SDS011;40208;39.778;2.710;2023-04-19T14:57:03;6.22;;;1.95;;
54307;SDS011;40208;39.778;2.710;2023-04-19T14:59:48;5.43;;;1.30;;
54307;SDS011;40208;39.778;2.710;2023-04-19T15:02:33;4.93;;;1.27;;
54307;SDS011;40208;39.778;2.710;2023-04-19T15:05:17;5.68;;;1.65;;
54307;SDS011;40208;39.778;2.710;2023-04-19T15:08:02;4.13;;;1.50;;
54307;SDS011;40208;39.778;2.710;2023-04-19T15:10:47;3.50;;;1.40;;
54307;SDS011;40208;39.778;2.710;2023-04-19T15:13:32;3.72;;;1.30;;
54307;SDS011;40208;39.778;2.710;2023-04-19T15:16:18;5.72;;;1.65;;
54307;SDS011;40208;39.778;2.710;2023-04-19T15:19:03;2.72;;;1.13;;
54307;SDS011;40208;39.778;2.710;2023-04-19T15:21:50;2.30;;;1.23;;
54307;SDS011;40208;39.778;2.710;2023-04-19T15:24:35;3.55;;;1.20;;
54307;SDS011;40208;39.778;2.710;2023-04-19T15:27:20;5.05;;;1.63;;
54307;SDS011;40208;39.778;2.710;2023-04-19T15:30:05;2.55;;;1.20;;
54307;SDS011;40208;39.778;2.710;2023-04-19T15:32:50;6.30;;;1.77;;
54307;SDS011;40208;39.778;2.710;2023-04-19T15:35:35;3.28;;;1.17;;
54307;SDS011;40208;39.778;2.710;2023-04-19T15:38:24;10.57;;;1.60;;
54307;SDS011;40208;39.778;2.710;2023-04-19T15:41:10;2.70;;;1.02;;
54307;SDS011;40208;39.778;2.710;2023-04-19T15:43:55;4.15;;;1.08;;
54307;SDS011;40208;39.778;2.710;2023-04-19T15:46:40;5.90;;;1.52;;
54307;SDS011;40208;39.778;2.710;2023-04-19T15:49:25;5.20;;;1.50;;
54307;SDS011;40208;39.778;2.710;2023-04-19T15:52:10;2.33;;;1.25;;
54307;SDS011;40208;39.778;2.710;2023-04-19T15:54:55;2.42;;;1.30;;
54307;SDS011;40208;39.778;2.710;2023-04-19T15:57:39;5.65;;;1.27;;
54307;SDS011;40208;39.778;2.710;2023-04-19T16:00:24;3.28;;;1.40;;
54307;SDS011;40208;39.778;2.710;2023-04-19T16:03:09;5.35;;;1.55;;
54307;SDS011;40208;39.778;2.710;2023-04-19T16:05:55;7.60;;;2.30;;
54307;SDS011;40208;39.778;2.710;2023-04-19T16:08:40;5.30;;;1.83;;
54307;SDS011;40208;39.778;2.710;2023-04-19T16:11:25;4.85;;;1.77;;
54307;SDS011;40208;39.778;2.710;2023-04-19T16:14:10;3.55;;;1.70;;
54307;SDS011;40208;39.778;2.710;2023-04-19T16:16:54;5.75;;;1.50;;
54307;SDS011;40208;39.778;2.710;2023-04-19T16:19:39;3.75;;;1.80;;
54307;SDS011;40208;39.778;2.710;2023-04-19T16:22:24;4.18;;;1.85;;
54307;SDS011;40208;39.778;2.710;2023-04-19T16:25:09;6.78;;;1.48;;
54307;SDS011;40208;39.778;2.710;2023-04-19T16:27:57;3.55;;;1.05;;
54307;SDS011;40208;39.778;2.710;2023-04-19T16:30:44;2.35;;;1.30;;
54307;SDS011;40208;39.778;2.710;2023-04-19T16:33:30;2.33;;;1.20;;
54307;SDS011;40208;39.778;2.710;2023-04-19T16:36:15;11.27;;;1.52;;
54307;SDS011;40208;39.778;2.710;2023-04-19T16:39:00;6.15;;;1.38;;
54307;SDS011;40208;39.778;2.710;2023-04-19T16:41:45;5.57;;;1.50;;
54307;SDS011;40208;39.778;2.710;2023-04-19T16:44:31;3.65;;;1.40;;
54307;SDS011;40208;39.778;2.710;2023-04-19T16:47:15;4.90;;;1.30;;